Time;durP1;ratioP1;P1;durP2;ratioP2;P2;SDS_P1;SDS_P2;PMS_P1;PMS_P2;Temp;Humidity;BMP_temperature;BMP_pressure;BME280_temperature;BME280_humidity;BME280_pressure;Samples;Min_cycle;Max_cycle;Signal;HPM_P1;HPM_P2
2021/01/24 00:00:55;;;;;;;9.32;5.13;;;2.50;61.70;;;;;;4856273;29;20046;-70
2021/01/24 00:03:23;;;;;;;10.52;5.25;;;2.40;62.40;;;;;;4853745;29;20054;-71
2021/01/24 00:05:50;;;;;;;8.18;5.43;;;2.30;62.90;;;;;;4868135;29;20058;-71
2021/01/24 00:08:17;;;;;;;7.57;5.38;;;2.30;63.90;;;;;;4854258;29;20096;-74
2021/01/24 00:10:44;;;;;;;7.82;5.20;;;2.40;65.40;;;;;;4863416;29;20049;-72
2021/01/24 00:13:11;;;;;;;7.60;5.25;;;2.30;65.20;;;;;;4860436;29;20396;-70
2021/01/24 00:15:38;;;;;;;7.32;5.50;;;2.40;67.20;;;;;;4863257;29;20057;-72
2021/01/24 00:18:06;;;;;;;7.30;5.40;;;2.40;67.10;;;;;;4858986;29;20056;-71
2021/01/24 00:20:33;;;;;;;8.32;5.53;;;2.30;66.10;;;;;;4861360;29;20056;-71
2021/01/24 00:23:00;;;;;;;8.00;4.95;;;2.40;68.00;;;;;;4860028;29;20056;-72
2021/01/24 00:25:27;;;;;;;7.78;5.30;;;2.30;66.50;;;;;;4866126;29;20053;-72
2021/01/24 00:27:54;;;;;;;7.32;5.35;;;2.30;67.50;;;;;;4861110;29;20061;-72
2021/01/24 00:30:21;;;;;;;8.35;5.78;;;2.30;67.90;;;;;;4861073;29;20791;-72
2021/01/24 00:32:48;;;;;;;7.03;5.28;;;2.30;68.00;;;;;;4860648;29;20045;-72
2021/01/24 00:35:17;;;;;;;8.38;5.57;;;2.30;67.90;;;;;;4862997;29;20056;-71
2021/01/24 00:37:44;;;;;;;9.70;5.93;;;2.30;68.80;;;;;;4862744;29;20104;-72
2021/01/24 00:40:11;;;;;;;7.40;5.50;;;2.30;69.40;;;;;;4856304;29;20058;-72
2021/01/24 00:42:38;;;;;;;8.82;6.43;;;2.40;69.80;;;;;;4859974;29;20059;-72
2021/01/24 00:45:07;;;;;;;8.18;5.55;;;2.40;70.10;;;;;;4861050;29;20056;-73
2021/01/24 00:47:35;;;;;;;8.05;6.32;;;2.40;70.10;;;;;;4866731;29;20049;-72
2021/01/24 00:50:03;;;;;;;8.77;5.80;;;2.30;69.80;;;;;;4859622;29;20473;-75
2021/01/24 00:52:31;;;;;;;7.97;5.97;;;2.30;70.60;;;;;;4863422;29;20049;-72
2021/01/24 00:54:58;;;;;;;10.20;6.68;;;2.30;71.40;;;;;;4861480;29;20499;-72
2021/01/24 00:57:25;;;;;;;9.20;6.32;;;2.30;72.00;;;;;;4859382;29;20056;-73
2021/01/24 00:59:52;;;;;;;7.68;5.60;;;2.30;71.20;;;;;;4864729;29;20064;-72
2021/01/24 01:02:19;;;;;;;10.85;5.93;;;2.30;72.50;;;;;;4859810;29;20045;-71
2021/01/24 01:04:46;;;;;;;8.05;5.70;;;2.30;72.80;;;;;;4860235;29;20057;-72
2021/01/24 01:07:13;;;;;;;8.43;5.15;;;2.30;72.80;;;;;;4860406;29;20058;-71
2021/01/24 01:09:41;;;;;;;7.95;5.85;;;2.40;73.40;;;;;;4860520;29;20064;-73
2021/01/24 01:12:08;;;;;;;8.15;5.72;;;2.40;73.50;;;;;;4858170;29;20065;-72
2021/01/24 01:14:35;;;;;;;7.78;5.65;;;2.40;73.20;;;;;;4859174;29;20064;-73
2021/01/24 01:17:01;;;;;;;7.32;4.97;;;2.30;72.80;;;;;;4861905;29;20057;-73
2021/01/24 01:19:28;;;;;;;8.52;5.35;;;2.40;73.70;;;;;;4860942;29;20053;-73
2021/01/24 01:21:55;;;;;;;8.20;5.43;;;2.40;73.50;;;;;;4857944;29;20412;-73
2021/01/24 01:24:22;;;;;;;7.47;5.20;;;2.50;73.70;;;;;;4862019;29;20416;-73
2021/01/24 01:26:50;;;;;;;7.90;5.25;;;2.50;73.40;;;;;;4864520;29;20053;-72
2021/01/24 01:29:17;;;;;;;8.15;4.70;;;2.50;73.20;;;;;;4858898;29;20425;-72
2021/01/24 01:31:44;;;;;;;6.63;4.28;;;2.50;73.00;;;;;;4856844;29;20648;-72
2021/01/24 01:34:12;;;;;;;6.80;4.65;;;2.50;72.50;;;;;;4860315;29;20053;-72
2021/01/24 01:36:38;;;;;;;5.88;4.15;;;2.50;73.10;;;;;;4863352;29;20052;-73
2021/01/24 01:39:05;;;;;;;4.70;3.33;;;2.50;73.20;;;;;;4858979;29;20453;-72
2021/01/24 01:41:33;;;;;;;4.80;3.33;;;2.60;72.20;;;;;;4862521;29;20425;-73
2021/01/24 01:44:03;;;;;;;4.63;3.20;;;2.50;72.20;;;;;;4864292;29;20061;-72
2021/01/24 01:46:30;;;;;;;4.40;2.90;;;2.50;71.90;;;;;;4863193;29;20057;-73
2021/01/24 01:48:58;;;;;;;4.53;3.20;;;2.50;71.40;;;;;;4857567;29;20137;-72
2021/01/24 01:51:25;;;;;;;4.20;2.70;;;2.50;71.20;;;;;;4860698;29;20056;-72
2021/01/24 01:53:53;;;;;;;3.08;2.33;;;2.40;70.20;;;;;;4857509;29;20064;-73
2021/01/24 01:56:21;;;;;;;3.55;2.42;;;2.40;70.50;;;;;;4861265;29;20545;-72
2021/01/24 01:58:47;;;;;;;4.28;2.85;;;2.30;70.10;;;;;;4861124;29;20401;-72
2021/01/24 02:01:28;;;;;;;4.45;2.47;;;2.40;70.20;;;;;;4860705;29;20053;-73
2021/01/24 02:04:03;;;;;;;2.80;2.30;;;2.40;70.10;;;;;;4859484;29;20480;-73
2021/01/24 02:06:35;;;;;;;2.92;2.20;;;2.50;68.20;;;;;;4860036;29;20045;-74
2021/01/24 02:09:08;;;;;;;3.08;2.10;;;2.50;67.70;;;;;;4858727;29;20054;-72
2021/01/24 02:11:43;;;;;;;2.13;1.77;;;2.60;67.00;;;;;;4855627;29;20488;-72
2021/01/24 02:14:20;;;;;;;2.70;1.45;;;2.60;64.20;;;;;;4862813;29;20049;-73
2021/01/24 02:16:49;;;;;;;2.78;1.63;;;2.60;64.40;;;;;;4861756;29;20053;-73
2021/01/24 02:19:24;;;;;;;3.35;1.85;;;2.70;62.40;;;;;;4861866;29;20614;-71
2021/01/24 02:21:52;;;;;;;2.05;1.58;;;2.80;60.40;;;;;;4856599;29;20093;-72
2021/01/24 02:24:23;;;;;;;1.38;1.17;;;2.80;60.20;;;;;;4862600;29;20594;-72
2021/01/24 02:27:00;;;;;;;1.60;1.33;;;2.80;58.30;;;;;;4862561;29;20061;-73
2021/01/24 02:29:40;;;;;;;2.20;1.40;;;2.70;57.50;;;;;;4858782;29;20049;-72
2021/01/24 02:32:09;;;;;;;1.88;1.30;;;2.40;59.90;;;;;;4855377;29;20416;-72
2021/01/24 02:34:39;;;;;;;2.30;1.42;;;2.30;59.90;;;;;;4860953;29;20059;-72
2021/01/24 02:37:07;;;;;;;0.77;0.70;;;2.20;57.70;;;;;;4860789;29;20508;-73
2021/01/24 02:39:34;;;;;;;0.57;0.47;;;2.10;55.80;;;;;;4859616;29;20054;-70
2021/01/24 02:42:02;;;;;;;0.50;0.50;;;2.20;55.40;;;;;;4861516;29;20057;-72
2021/01/24 02:44:31;;;;;;;0.50;0.47;;;2.10;55.30;;;;;;4861860;29;20063;-72
2021/01/24 02:46:59;;;;;;;0.77;0.50;;;2.10;53.20;;;;;;4859760;29;20552;-72
2021/01/24 02:49:29;;;;;;;0.80;0.65;;;2.10;53.30;;;;;;4858008;29;20081;-71
2021/01/24 02:51:58;;;;;;;1.48;0.60;;;2.00;51.10;;;;;;4852715;29;20053;-71
2021/01/24 02:54:26;;;;;;;2.20;0.70;;;2.00;49.40;;;;;;4858732;29;20060;-72
2021/01/24 02:56:53;;;;;;;1.05;0.80;;;2.00;48.80;;;;;;4861095;29;20789;-72
2021/01/24 02:59:21;;;;;;;1.13;1.00;;;2.00;48.40;;;;;;4856193;29;20050;-72
2021/01/24 03:01:48;;;;;;;1.15;1.00;;;1.90;47.00;;;;;;4857128;29;20735;-71
2021/01/24 03:04:15;;;;;;;1.35;1.08;;;1.90;45.60;;;;;;4859934;29;20050;-72
2021/01/24 03:06:43;;;;;;;1.15;0.90;;;2.00;42.60;;;;;;4862668;29;20513;-71
2021/01/24 03:09:10;;;;;;;1.83;1.20;;;1.90;42.10;;;;;;4859729;29;20060;-72
2021/01/24 03:11:43;;;;;;;1.60;1.10;;;1.90;44.40;;;;;;4855699;29;20085;-73
2021/01/24 03:14:13;;;;;;;1.80;1.40;;;2.00;40.90;;;;;;4862710;29;20660;-72
2021/01/24 03:16:41;;;;;;;3.15;2.10;;;2.00;40.00;;;;;;4863250;29;20052;-72
2021/01/24 03:19:10;;;;;;;1.88;1.60;;;1.80;42.80;;;;;;4856637;29;20438;-72
2021/01/24 03:21:39;;;;;;;2.05;1.65;;;1.80;43.60;;;;;;4861748;29;20045;-73
2021/01/24 03:24:07;;;;;;;2.65;1.98;;;1.80;42.00;;;;;;4859678;29;20061;-72
2021/01/24 03:26:35;;;;;;;3.47;2.00;;;1.80;40.40;;;;;;4863445;29;20067;-72
2021/01/24 03:29:05;;;;;;;3.38;2.30;;;1.80;35.40;;;;;;4856321;29;20393;-71
2021/01/24 03:31:32;;;;;;;6.65;2.83;;;1.90;33.80;;;;;;4858008;29;20057;-70
2021/01/24 03:34:01;;;;;;;4.43;3.05;;;1.80;32.80;;;;;;4858052;29;20581;-70
2021/01/24 03:36:27;;;;;;;4.35;3.30;;;1.90;30.50;;;;;;4860416;29;20124;-70
2021/01/24 03:38:54;;;;;;;6.00;3.30;;;1.90;28.10;;;;;;4860034;29;20067;-70
2021/01/24 03:41:25;;;;;;;5.78;3.88;;;1.90;26.90;;;;;;4855734;29;20080;-70
2021/01/24 03:43:52;;;;;;;4.82;3.17;;;1.90;26.30;;;;;;4856932;29;20088;-70
2021/01/24 03:46:19;;;;;;;6.13;3.80;;;1.90;25.80;;;;;;4855024;29;20045;-71
2021/01/24 03:48:46;;;;;;;5.75;3.80;;;1.80;26.30;;;;;;4855911;29;20136;-71
2021/01/24 03:51:13;;;;;;;5.63;3.53;;;1.90;25.90;;;;;;4856703;29;20052;-70
2021/01/24 03:53:39;;;;;;;5.72;3.42;;;1.90;24.80;;;;;;4858313;29;20081;-71
2021/01/24 03:56:06;;;;;;;4.65;3.05;;;1.80;24.90;;;;;;4857879;29;20049;-71
2021/01/24 03:58:34;;;;;;;6.65;3.15;;;1.90;24.00;;;;;;4862232;29;20049;-71
2021/01/24 04:01:01;;;;;;;5.80;3.72;;;1.90;24.00;;;;;;4856872;29;20489;-70
2021/01/24 04:03:28;;;;;;;4.60;3.00;;;1.90;22.80;;;;;;4857251;29;20587;-71
2021/01/24 04:05:56;;;;;;;5.20;3.40;;;1.90;23.90;;;;;;4863594;29;20144;-70
2021/01/24 04:08:23;;;;;;;4.57;3.17;;;1.90;24.10;;;;;;4860703;29;20420;-70
2021/01/24 04:10:50;;;;;;;5.50;3.40;;;2.00;22.10;;;;;;4860100;29;20061;-70
2021/01/24 04:13:17;;;;;;;4.32;3.10;;;2.00;22.10;;;;;;4860302;29;20053;-70
2021/01/24 04:15:44;;;;;;;6.20;2.92;;;2.00;22.90;;;;;;4863468;29;20602;-70
2021/01/24 04:18:11;;;;;;;6.95;2.95;;;1.90;22.60;;;;;;4862982;29;20057;-70
2021/01/24 04:20:39;;;;;;;5.60;3.30;;;1.80;23.80;;;;;;4861411;29;20054;-70
2021/01/24 04:23:05;;;;;;;5.85;3.40;;;1.70;22.60;;;;;;4857378;29;20049;-70
2021/01/24 04:25:32;;;;;;;4.82;2.70;;;1.70;22.90;;;;;;4865963;29;20415;-71
2021/01/24 04:27:59;;;;;;;6.43;3.42;;;1.70;21.10;;;;;;4861045;29;20057;-71
2021/01/24 04:30:26;;;;;;;4.85;2.65;;;1.70;21.60;;;;;;4861802;29;20049;-70
2021/01/24 04:32:54;;;;;;;7.57;3.42;;;1.70;22.60;;;;;;4858781;29;20053;-71
2021/01/24 04:35:22;;;;;;;4.45;2.88;;;1.60;22.90;;;;;;4858666;29;20056;-70
2021/01/24 04:37:49;;;;;;;4.60;2.80;;;1.60;23.80;;;;;;4862894;29;20580;-70
2021/01/24 04:40:16;;;;;;;4.47;2.83;;;1.60;22.20;;;;;;4859425;29;20057;-70
2021/01/24 04:42:43;;;;;;;4.35;3.00;;;1.60;21.60;;;;;;4860790;29;20045;-70
2021/01/24 04:45:11;;;;;;;4.82;2.80;;;1.60;23.00;;;;;;4861679;29;20063;-70
2021/01/24 04:47:39;;;;;;;4.60;2.35;;;1.60;23.80;;;;;;4859535;29;20053;-71
2021/01/24 04:50:08;;;;;;;3.85;2.42;;;1.60;20.90;;;;;;4855522;29;20048;-70
2021/01/24 04:52:35;;;;;;;4.75;2.60;;;1.60;20.90;;;;;;4859182;29;20045;-70
2021/01/24 04:55:03;;;;;;;4.13;2.30;;;1.50;19.90;;;;;;4863473;29;20061;-70
2021/01/24 04:57:31;;;;;;;3.28;2.25;;;1.50;19.30;;;;;;4865466;29;20454;-71
2021/01/24 04:59:59;;;;;;;5.55;2.65;;;1.50;18.50;;;;;;4863209;29;20061;-74
2021/01/24 05:02:26;;;;;;;4.00;2.80;;;1.50;18.10;;;;;;4859217;29;20045;-71
2021/01/24 05:04:53;;;;;;;5.80;2.70;;;1.60;19.20;;;;;;4861858;29;20428;-71
2021/01/24 05:07:21;;;;;;;4.60;2.80;;;1.50;18.00;;;;;;4865245;29;20060;-73
2021/01/24 05:09:48;;;;;;;7.75;2.63;;;1.60;18.00;;;;;;4861585;29;20704;-71
2021/01/24 05:12:16;;;;;;;3.10;2.20;;;1.60;17.90;;;;;;4862316;29;20172;-72
2021/01/24 05:14:42;;;;;;;4.40;2.30;;;1.60;16.80;;;;;;4867100;29;20053;-71
2021/01/24 05:17:13;;;;;;;3.72;2.33;;;1.50;17.60;;;;;;4857777;29;20072;-71
2021/01/24 05:19:41;;;;;;;5.70;2.95;;;1.50;17.70;;;;;;4863056;29;20060;-71
2021/01/24 05:22:08;;;;;;;4.60;2.50;;;1.50;17.80;;;;;;4857727;29;20052;-70
2021/01/24 05:24:37;;;;;;;5.38;2.90;;;1.50;16.70;;;;;;4862466;29;20386;-72
2021/01/24 05:27:08;;;;;;;2.97;2.20;;;1.50;15.00;;;;;;4864279;29;20045;-72
2021/01/24 05:29:37;;;;;;;3.28;2.25;;;1.60;13.90;;;;;;4866810;29;20416;-72
2021/01/24 05:32:05;;;;;;;3.42;2.20;;;1.50;13.90;;;;;;4857608;29;20053;-71
2021/01/24 05:34:33;;;;;;;4.32;2.65;;;1.50;13.90;;;;;;4861876;29;20088;-71
2021/01/24 05:37:01;;;;;;;6.05;2.80;;;1.50;13.60;;;;;;4860899;29;20049;-71
2021/01/24 05:39:29;;;;;;;5.53;2.58;;;1.40;13.30;;;;;;4859152;29;20053;-70
2021/01/24 05:41:59;;;;;;;4.10;2.45;;;1.40;13.70;;;;;;4856880;29;20060;-70
2021/01/24 05:44:27;;;;;;;3.35;2.30;;;1.30;12.70;;;;;;4859539;29;20083;-70
2021/01/24 05:47:01;;;;;;;4.53;2.65;;;1.30;12.80;;;;;;4860215;29;20079;-72
2021/01/24 05:49:29;;;;;;;5.25;2.58;;;1.20;12.70;;;;;;4860858;29;20064;-72
2021/01/24 05:52:00;;;;;;;4.63;2.40;;;1.20;13.60;;;;;;4860767;29;20049;-73
2021/01/24 05:54:42;;;;;;;5.65;2.92;;;1.20;11.60;;;;;;4859732;29;20052;-72
2021/01/24 05:57:11;;;;;;;5.60;2.97;;;1.10;11.80;;;;;;4860674;29;20166;-70
2021/01/24 05:59:53;;;;;;;5.03;2.78;;;1.10;10.10;;;;;;4860873;29;20148;-70
2021/01/24 06:02:21;;;;;;;4.32;2.72;;;1.20;10.00;;;;;;4856272;29;20062;-71
2021/01/24 06:04:49;;;;;;;6.60;3.15;;;1.10;9.50;;;;;;4863406;29;20136;-71
2021/01/24 06:07:16;;;;;;;6.00;3.53;;;1.10;10.00;;;;;;4855608;29;20049;-71
2021/01/24 06:09:44;;;;;;;4.53;2.70;;;1.00;10.60;;;;;;4861310;29;20053;-71
2021/01/24 06:12:15;;;;;;;4.40;2.95;;;1.00;10.80;;;;;;4859720;29;20113;-71
2021/01/24 06:14:47;;;;;;;4.57;3.10;;;1.00;11.40;;;;;;4860479;29;20081;-71
2021/01/24 06:17:23;;;;;;;6.43;3.28;;;1.00;11.90;;;;;;4867477;29;20048;-71
2021/01/24 06:19:56;;;;;;;6.30;3.40;;;1.00;12.10;;;;;;4859691;29;20519;-72
2021/01/24 06:22:26;;;;;;;6.18;3.30;;;1.00;12.70;;;;;;4855404;29;20052;-71
2021/01/24 06:24:57;;;;;;;6.15;3.58;;;0.90;13.50;;;;;;4861804;29;20064;-71
2021/01/24 06:27:29;;;;;;;4.97;3.47;;;0.90;13.50;;;;;;4861301;29;20736;-70
2021/01/24 06:29:57;;;;;;;5.82;3.53;;;0.90;13.50;;;;;;4856016;29;20050;-70
2021/01/24 06:32:26;;;;;;;6.20;3.40;;;0.90;13.90;;;;;;4855049;29;20670;-70
2021/01/24 06:34:54;;;;;;;8.50;3.70;;;0.90;14.00;;;;;;4856875;29;20049;-71
2021/01/24 06:37:27;;;;;;;4.88;3.47;;;0.90;13.50;;;;;;4854711;29;20053;-70
2021/01/24 06:39:56;;;;;;;4.80;3.38;;;0.80;13.80;;;;;;4855124;29;20572;-70
2021/01/24 06:42:36;;;;;;;6.15;3.38;;;0.80;13.40;;;;;;4856252;29;20117;-72
2021/01/24 06:45:05;;;;;;;6.35;3.13;;;0.80;13.40;;;;;;4858232;29;20057;-69
2021/01/24 06:47:40;;;;;;;5.18;2.50;;;0.80;13.40;;;;;;4856468;29;20059;-70
2021/01/24 06:50:35;;;;;;;5.88;3.25;;;0.80;13.50;;;;;;4852405;29;20076;-72
2021/01/24 06:53:03;;;;;;;4.07;2.95;;;0.80;14.00;;;;;;4859741;29;20056;-71
2021/01/24 06:55:30;;;;;;;3.80;2.65;;;0.80;12.70;;;;;;4865596;29;20057;-70
2021/01/24 06:57:58;;;;;;;4.60;2.70;;;0.80;12.40;;;;;;4857758;29;20064;-72
2021/01/24 07:00:25;;;;;;;5.20;2.40;;;0.80;12.40;;;;;;4855612;29;20054;-71
2021/01/24 07:02:52;;;;;;;2.60;2.15;;;0.80;11.70;;;;;;4856260;29;20058;-71
2021/01/24 07:05:22;;;;;;;4.07;2.60;;;0.80;11.90;;;;;;4861892;29;20049;-72
2021/01/24 07:07:50;;;;;;;5.22;2.70;;;0.80;12.10;;;;;;4862355;29;20056;-71
2021/01/24 07:10:43;;;;;;;3.75;2.55;;;0.80;12.70;;;;;;4858969;29;20068;-70
2021/01/24 07:13:38;;;;;;;4.75;2.85;;;0.90;11.50;;;;;;4861725;29;20052;-71
2021/01/24 07:16:08;;;;;;;3.60;2.08;;;0.90;12.10;;;;;;4866347;29;20077;-72
2021/01/24 07:18:40;;;;;;;4.82;2.38;;;1.00;10.70;;;;;;4853038;29;20045;-69
2021/01/24 07:21:08;;;;;;;4.68;2.60;;;1.00;10.40;;;;;;4857518;29;20421;-69
2021/01/24 07:23:37;;;;;;;4.03;2.20;;;1.00;10.70;;;;;;4853785;29;20045;-70
2021/01/24 07:26:04;;;;;;;3.90;2.47;;;1.10;10.50;;;;;;4860256;29;20060;-70
2021/01/24 07:28:32;;;;;;;2.60;1.98;;;1.20;9.90;;;;;;4859010;29;20061;-71
2021/01/24 07:31:04;;;;;;;3.08;1.98;;;1.20;10.40;;;;;;4859738;29;20045;-70
2021/01/24 07:33:32;;;;;;;3.30;2.05;;;1.20;10.10;;;;;;4859566;29;20049;-71
2021/01/24 07:36:01;;;;;;;3.90;2.28;;;1.20;10.20;;;;;;4861954;29;20049;-70
2021/01/24 07:38:28;;;;;;;6.80;2.13;;;1.20;11.10;;;;;;4862980;29;20057;-70
2021/01/24 07:40:56;;;;;;;3.67;2.13;;;1.20;11.00;;;;;;4859933;29;20131;-70
2021/01/24 07:43:25;;;;;;;5.28;2.30;;;1.20;11.10;;;;;;4863292;29;20045;-71
2021/01/24 07:45:51;;;;;;;4.68;2.20;;;1.30;10.70;;;;;;4863494;29;20061;-71
2021/01/24 07:48:19;;;;;;;3.05;2.00;;;1.30;11.20;;;;;;4864276;29;20056;-71
2021/01/24 07:50:46;;;;;;;2.92;2.03;;;1.40;11.30;;;;;;4861220;29;20676;-72
2021/01/24 07:53:14;;;;;;;4.20;2.42;;;1.40;11.70;;;;;;4862432;29;20050;-71
2021/01/24 07:55:42;;;;;;;4.38;2.10;;;1.40;11.40;;;;;;4861640;29;20523;-71
2021/01/24 07:58:09;;;;;;;4.15;2.53;;;1.40;11.50;;;;;;4863167;29;20065;-71
2021/01/24 08:00:36;;;;;;;3.42;2.40;;;1.40;11.90;;;;;;4861456;29;20685;-71
2021/01/24 08:03:03;;;;;;;3.67;2.20;;;1.40;12.20;;;;;;4859179;29;20077;-71
2021/01/24 08:05:32;;;;;;;4.15;2.45;;;1.40;11.60;;;;;;4862987;29;20576;-71
2021/01/24 08:08:00;;;;;;;5.65;2.15;;;1.40;12.20;;;;;;4861954;29;20053;-71
2021/01/24 08:10:31;;;;;;;5.45;2.22;;;1.30;11.90;;;;;;4859462;29;20519;-70
2021/01/24 08:12:58;;;;;;;3.15;2.13;;;1.30;12.10;;;;;;4861266;29;20054;-71
2021/01/24 08:15:26;;;;;;;5.18;2.60;;;1.30;12.30;;;;;;4867769;29;20432;-72
2021/01/24 08:17:53;;;;;;;4.18;2.72;;;1.30;12.20;;;;;;4863151;29;20391;-71
2021/01/24 08:20:21;;;;;;;5.38;2.70;;;1.30;12.10;;;;;;4861798;29;20061;-72
2021/01/24 08:22:50;;;;;;;3.92;2.63;;;1.30;12.30;;;;;;4859249;29;20049;-71
2021/01/24 08:25:17;;;;;;;5.63;2.92;;;1.30;12.20;;;;;;4866328;29;20057;-72
2021/01/24 08:27:45;;;;;;;4.53;2.58;;;1.30;11.90;;;;;;4859590;29;20065;-72
2021/01/24 08:30:14;;;;;;;4.75;2.70;;;1.40;10.80;;;;;;4864371;29;20058;-71
2021/01/24 08:32:42;;;;;;;4.97;3.10;;;1.60;9.50;;;;;;4862944;29;20061;-71
2021/01/24 08:35:13;;;;;;;7.82;2.75;;;1.90;9.00;;;;;;4864227;29;20080;-71
2021/01/24 08:37:40;;;;;;;2.85;2.10;;;2.10;8.30;;;;;;4862539;29;20052;-71
2021/01/24 08:40:09;;;;;;;4.72;2.47;;;2.10;8.30;;;;;;4859770;29;20065;-71
2021/01/24 08:42:44;;;;;;;5.38;2.92;;;2.20;7.80;;;;;;4863840;29;20061;-71
2021/01/24 08:45:18;;;;;;;3.85;2.45;;;2.10;8.00;;;;;;4861441;29;20056;-72
2021/01/24 08:47:50;;;;;;;3.88;2.95;;;2.00;7.60;;;;;;4863526;29;20057;-71
2021/01/24 08:50:18;;;;;;;4.25;2.55;;;1.90;8.60;;;;;;4859012;29;20112;-72
2021/01/24 08:52:44;;;;;;;3.10;2.40;;;2.00;9.30;;;;;;4861938;29;20057;-71
2021/01/24 08:55:12;;;;;;;3.85;2.45;;;2.00;9.00;;;;;;4860943;29;20060;-71
2021/01/24 08:57:39;;;;;;;5.78;2.70;;;2.00;10.30;;;;;;4859838;29;20052;-71
2021/01/24 09:00:08;;;;;;;3.60;2.60;;;2.00;9.90;;;;;;4860714;29;20041;-71
2021/01/24 09:02:36;;;;;;;3.97;2.75;;;1.90;10.90;;;;;;4857075;29;20087;-72
2021/01/24 09:05:05;;;;;;;3.33;2.42;;;1.90;11.70;;;;;;4863317;29;20432;-71
2021/01/24 09:07:38;;;;;;;2.50;1.85;;;1.90;13.00;;;;;;4862799;29;20053;-70
2021/01/24 09:10:19;;;;;;;5.13;3.00;;;1.80;14.10;;;;;;4858905;29;20049;-71
2021/01/24 09:12:47;;;;;;;5.38;2.88;;;1.80;15.00;;;;;;4863701;29;20052;-71
2021/01/24 09:15:14;;;;;;;3.88;2.55;;;1.70;16.60;;;;;;4862149;29;20064;-71
2021/01/24 09:17:42;;;;;;;3.80;2.72;;;1.70;17.50;;;;;;4860895;29;20128;-71
2021/01/24 09:20:10;;;;;;;6.40;2.22;;;1.70;18.40;;;;;;4857952;29;20500;-71
2021/01/24 09:22:37;;;;;;;3.97;2.40;;;1.80;18.70;;;;;;4862747;29;20053;-71
2021/01/24 09:25:07;;;;;;;4.45;2.63;;;1.70;20.50;;;;;;4861494;29;20136;-72
2021/01/24 09:27:35;;;;;;;5.68;3.35;;;1.70;20.90;;;;;;4859518;29;20132;-71
2021/01/24 09:30:05;;;;;;;5.43;2.72;;;1.70;20.90;;;;;;4862604;29;20068;-74
2021/01/24 09:32:32;;;;;;;3.75;2.83;;;1.70;22.00;;;;;;4855067;29;20045;-71
2021/01/24 09:34:59;;;;;;;3.83;2.80;;;1.60;21.10;;;;;;4862333;29;20062;-70
2021/01/24 09:37:26;;;;;;;6.20;3.10;;;1.80;21.10;;;;;;4861248;29;20472;-71
2021/01/24 09:39:53;;;;;;;5.65;2.88;;;1.70;21.70;;;;;;4858384;29;20053;-71
2021/01/24 09:42:20;;;;;;;4.32;3.33;;;1.60;24.60;;;;;;4856027;29;20053;-71
2021/01/24 09:44:47;;;;;;;5.43;3.10;;;1.60;25.60;;;;;;4860798;29;20060;-71
2021/01/24 09:47:18;;;;;;;5.85;3.03;;;1.50;26.50;;;;;;4858191;29;20054;-71
2021/01/24 09:49:45;;;;;;;4.68;3.10;;;1.50;27.50;;;;;;4863267;29;20061;-69
2021/01/24 09:52:12;;;;;;;6.45;3.25;;;1.50;27.50;;;;;;4858907;29;20128;-72
2021/01/24 09:54:39;;;;;;;3.65;2.92;;;1.50;28.10;;;;;;4865375;29;20060;-71
2021/01/24 09:57:06;;;;;;;7.03;3.60;;;1.60;27.70;;;;;;4860252;29;20054;-71
2021/01/24 09:59:32;;;;;;;4.93;3.13;;;1.60;28.00;;;;;;4863129;29;20064;-70
2021/01/24 10:02:00;;;;;;;7.32;3.67;;;1.60;27.60;;;;;;4854895;29;20404;-70
2021/01/24 10:04:27;;;;;;;7.65;3.15;;;1.70;28.70;;;;;;4857179;29;20697;-71
2021/01/24 10:06:54;;;;;;;5.70;3.15;;;1.70;28.90;;;;;;4860889;29;20058;-70
2021/01/24 10:09:21;;;;;;;3.78;3.03;;;1.90;28.90;;;;;;4861496;29;20057;-70
2021/01/24 10:11:48;;;;;;;4.10;3.00;;;1.80;27.70;;;;;;4859774;29;20053;-71
2021/01/24 10:14:18;;;;;;;3.85;2.58;;;1.90;26.20;;;;;;4857608;29;20053;-70
2021/01/24 10:16:45;;;;;;;4.55;2.88;;;1.80;25.60;;;;;;4860071;29;20045;-71
2021/01/24 10:19:12;;;;;;;6.72;3.60;;;1.70;24.20;;;;;;4864904;29;20136;-71
2021/01/24 10:21:39;;;;;;;5.88;3.00;;;1.90;25.90;;;;;;4860611;29;20510;-71
2021/01/24 10:24:07;;;;;;;8.25;3.53;;;2.00;25.10;;;;;;4855528;29;20656;-70
2021/01/24 10:26:34;;;;;;;5.03;2.65;;;2.00;23.40;;;;;;4857577;29;20486;-70
2021/01/24 10:29:01;;;;;;;5.20;2.67;;;2.00;22.80;;;;;;4858587;29;20054;-71
2021/01/24 10:31:28;;;;;;;6.07;2.90;;;1.90;22.00;;;;;;4856404;29;20523;-73
2021/01/24 10:33:56;;;;;;;7.22;2.92;;;2.20;22.70;;;;;;4854579;29;20053;-71
2021/01/24 10:36:23;;;;;;;4.10;2.40;;;2.30;21.30;;;;;;4855012;29;20086;-70
2021/01/24 10:38:50;;;;;;;4.50;3.00;;;2.20;18.20;;;;;;4858865;29;20065;-70
2021/01/24 10:41:18;;;;;;;5.35;2.10;;;2.30;17.80;;;;;;4859689;29;20049;-71
2021/01/24 10:43:44;;;;;;;5.25;2.10;;;2.40;17.70;;;;;;4858024;29;20041;-69
2021/01/24 10:46:31;;;;;;;5.20;2.30;;;2.40;15.40;;;;;;4858990;29;20104;-70
2021/01/24 10:48:59;;;;;;;3.22;2.13;;;2.70;14.70;;;;;;4858084;29;20045;-70
2021/01/24 10:51:27;;;;;;;3.60;2.10;;;2.60;12.70;;;;;;4854166;29;20064;-70
2021/01/24 10:53:54;;;;;;;4.60;2.50;;;2.70;11.90;;;;;;4855017;29;20061;-69
2021/01/24 10:56:21;;;;;;;3.03;2.30;;;3.00;12.00;;;;;;4855622;29;20057;-69
2021/01/24 10:58:48;;;;;;;3.95;2.10;;;2.80;10.30;;;;;;4861389;29;20054;-70
2021/01/24 11:01:15;;;;;;;2.20;1.80;;;2.80;8.10;;;;;;4859127;29;20053;-70
2021/01/24 11:03:42;;;;;;;8.75;2.28;;;2.90;8.20;;;;;;4858601;29;20065;-70
2021/01/24 11:06:09;;;;;;;5.10;1.80;;;2.60;4.40;;;;;;4863720;29;20132;-70
2021/01/24 11:08:37;;;;;;;2.38;1.60;;;3.00;6.30;;;;;;4858834;29;20056;-71
2021/01/24 11:11:04;;;;;;;3.95;1.80;;;3.00;5.00;;;;;;4856317;29;20061;-71
2021/01/24 11:13:31;;;;;;;2.95;1.73;;;2.80;4.40;;;;;;4855888;29;20049;-71
2021/01/24 11:15:58;;;;;;;2.88;2.25;;;3.00;4.30;;;;;;4862083;29;20134;-71
2021/01/24 11:18:25;;;;;;;2.85;1.60;;;3.00;4.10;;;;;;4857998;29;20050;-70
2021/01/24 11:20:52;;;;;;;2.88;1.63;;;2.90;3.20;;;;;;4863108;29;20119;-71
2021/01/24 11:23:19;;;;;;;4.32;1.52;;;3.00;4.70;;;;;;4857359;29;20046;-71
2021/01/24 11:25:47;;;;;;;2.35;1.80;;;3.00;5.50;;;;;;4860400;29;20106;-70
2021/01/24 11:28:14;;;;;;;4.38;2.38;;;3.10;3.50;;;;;;4858976;29;20577;-70
2021/01/24 11:30:42;;;;;;;2.85;1.90;;;3.10;3.50;;;;;;4859372;29;20048;-70
2021/01/24 11:33:09;;;;;;;3.35;1.73;;;3.10;3.50;;;;;;4857840;29;20420;-71
2021/01/24 11:35:36;;;;;;;4.55;1.90;;;3.10;3.80;;;;;;4861986;29;20064;-70
2021/01/24 11:38:04;;;;;;;3.63;1.70;;;3.10;3.30;;;;;;4860698;29;20062;-71
2021/01/24 11:40:31;;;;;;;3.83;2.03;;;2.80;2.80;;;;;;4855814;29;20172;-71
2021/01/24 11:42:59;;;;;;;2.17;1.55;;;3.10;3.80;;;;;;4856763;29;20428;-71
2021/01/24 11:45:26;;;;;;;3.20;1.80;;;3.10;4.10;;;;;;4858727;29;20140;-70
2021/01/24 11:47:55;;;;;;;5.15;2.40;;;3.20;4.20;;;;;;4857965;29;20064;-72
2021/01/24 11:50:22;;;;;;;7.00;2.53;;;3.30;4.30;;;;;;4858846;29;21981;-69
2021/01/24 11:52:49;;;;;;;2.78;1.80;;;3.00;5.10;;;;;;4855903;29;20045;-70
2021/01/24 11:55:18;;;;;;;2.63;1.70;;;2.70;5.70;;;;;;4860620;29;20425;-71
2021/01/24 11:57:44;;;;;;;2.33;1.48;;;2.80;5.40;;;;;;4863872;29;20057;-72
2021/01/24 12:00:14;;;;;;;2.88;1.70;;;3.10;4.70;;;;;;4859529;29;20049;-71
2021/01/24 12:02:40;;;;;;;3.47;1.90;;;2.90;5.40;;;;;;4858905;29;20409;-72
2021/01/24 12:05:09;;;;;;;6.47;2.00;;;2.90;6.20;;;;;;4859923;29;20053;-71
2021/01/24 12:07:36;;;;;;;4.78;2.30;;;3.00;6.30;;;;;;4859175;29;20680;-71
2021/01/24 12:10:04;;;;;;;3.33;2.03;;;2.90;5.00;;;;;;4858039;29;20061;-71
2021/01/24 12:12:31;;;;;;;3.83;1.90;;;3.00;4.80;;;;;;4860503;29;20049;-70
2021/01/24 12:14:57;;;;;;;7.50;2.17;;;2.90;6.10;;;;;;4858551;29;20057;-72
2021/01/24 12:17:25;;;;;;;2.78;1.60;;;3.00;6.30;;;;;;4860348;29;20050;-72
2021/01/24 12:19:53;;;;;;;4.07;2.60;;;2.80;5.80;;;;;;4861984;29;20064;-71
2021/01/24 12:22:20;;;;;;;2.95;1.85;;;2.90;5.70;;;;;;4861128;29;20056;-72
2021/01/24 12:24:46;;;;;;;2.42;1.70;;;3.10;5.60;;;;;;4860441;29;20057;-70
2021/01/24 12:27:13;;;;;;;5.80;2.08;;;3.10;4.10;;;;;;4865887;29;20052;-71
2021/01/24 12:29:41;;;;;;;5.18;2.22;;;3.00;5.10;;;;;;4861886;29;20046;-71
2021/01/24 12:32:09;;;;;;;2.65;1.70;;;2.80;5.40;;;;;;4860674;29;20053;-71
2021/01/24 12:34:37;;;;;;;3.88;1.92;;;3.00;4.30;;;;;;4863045;29;20057;-71
2021/01/24 12:37:04;;;;;;;2.60;1.67;;;3.00;4.50;;;;;;4864880;29;20544;-71
2021/01/24 12:39:31;;;;;;;3.95;1.83;;;3.10;4.40;;;;;;4863074;29;20132;-72
2021/01/24 12:41:58;;;;;;;4.30;2.20;;;3.30;3.70;;;;;;4860623;29;20523;-72
2021/01/24 12:44:25;;;;;;;2.22;1.73;;;3.30;3.50;;;;;;4861763;29;20053;-71
2021/01/24 12:46:51;;;;;;;4.72;2.03;;;3.20;3.30;;;;;;4863246;29;20054;-71
2021/01/24 12:49:19;;;;;;;5.50;2.03;;;3.10;2.80;;;;;;4861399;29;20061;-71
2021/01/24 12:51:46;;;;;;;3.58;1.70;;;2.80;1.80;;;;;;4859522;29;20492;-71
2021/01/24 12:54:13;;;;;;;3.40;1.83;;;3.00;2.50;;;;;;4861164;29;20532;-70
2021/01/24 12:56:40;;;;;;;3.70;2.13;;;3.00;1.90;;;;;;4860225;29;20083;-71
2021/01/24 12:59:07;;;;;;;3.20;1.70;;;3.10;1.00;;;;;;4862016;29;20054;-71
2021/01/24 13:01:34;;;;;;;7.13;1.80;;;2.70;2.30;;;;;;4861441;29;20065;-72
2021/01/24 13:04:01;;;;;;;5.70;1.73;;;2.80;1.70;;;;;;4858236;29;20445;-72
2021/01/24 13:06:28;;;;;;;5.30;2.50;;;2.60;2.90;;;;;;4864752;29;20049;-71